Time;durP1;ratioP1;P1;durP2;ratioP2;P2;SDS_P1;SDS_P2;PMS_P1;PMS_P2;Temp;Humidity;BMP_temperature;BMP_pressure;BME280_temperature;BME280_humidity;BME280_pressure;Samples;Min_cycle;Max_cycle;Signal;HPM_P1;HPM_P2
2022/09/02 00:01:26;;;;;;;23.95;13.85;;;17.60;99.90;;;;;;6337014;22;20045;-89
2022/09/02 00:03:57;;;;;;;23.67;14.20;;;17.60;99.90;;;;;;6335981;22;20053;-90
2022/09/02 00:06:23;;;;;;;22.98;12.93;;;17.70;99.90;;;;;;6307925;22;20089;-91
2022/09/02 00:08:49;;;;;;;17.58;12.77;;;17.70;99.90;;;;;;6309253;22;19999;-90
2022/09/02 00:11:19;;;;;;;20.17;13.20;;;17.80;99.90;;;;;;6309174;22;20064;-90
2022/09/02 00:13:49;;;;;;;22.70;14.38;;;17.90;99.90;;;;;;6337265;22;20347;-90
2022/09/02 00:16:16;;;;;;;25.98;13.30;;;17.60;99.90;;;;;;6336753;22;20435;-90
2022/09/02 00:18:43;;;;;;;18.15;12.50;;;;;;;;;;6308170;22;20051;-90
2022/09/02 00:21:11;;;;;;;22.55;13.10;;;17.70;99.90;;;;;;6335568;22;20015;-89
2022/09/02 00:23:37;;;;;;;22.85;13.95;;;17.80;99.90;;;;;;6335642;22;20056;-89
2022/09/02 00:26:04;;;;;;;21.05;12.10;;;;;;;;;;6335402;22;20002;-91
2022/09/02 00:28:30;;;;;;;23.35;13.25;;;;;;;;;;6307956;22;20002;-90
2022/09/02 00:30:56;;;;;;;22.33;12.25;;;;;;;;;;6307856;22;19999;-89
2022/09/02 00:33:22;;;;;;;22.38;12.13;;;;;;;;;;6307761;22;20007;-90
2022/09/02 00:35:49;;;;;;;26.42;13.57;;;18.00;99.90;;;;;;6336269;22;20052;-89
2022/09/02 00:38:15;;;;;;;19.80;12.43;;;;;;;;;;6307615;22;20404;-89
2022/09/02 00:40:49;;;;;;;22.30;14.02;;;18.10;99.90;;;;;;6335433;22;20018;-92
2022/09/02 00:43:24;;;;;;;24.75;14.95;;;18.20;99.90;;;;;;6336286;22;20488;-89
2022/09/02 00:45:50;;;;;;;33.28;17.90;;;18.00;99.90;;;;;;6308960;22;20010;-90
2022/09/02 00:48:16;;;;;;;26.08;15.80;;;17.90;99.90;;;;;;6309189;22;20045;-89
2022/09/02 00:50:42;;;;;;;24.27;16.17;;;18.00;99.90;;;;;;6335880;22;19998;-88
2022/09/02 00:53:12;;;;;;;27.38;16.95;;;17.10;99.90;;;;;;6308199;22;20096;-89
2022/09/02 00:55:46;;;;;;;24.77;16.58;;;18.00;99.90;;;;;;6308235;22;20003;-90
2022/09/02 00:58:23;;;;;;;23.02;15.32;;;18.00;99.90;;;;;;6307854;22;20454;-90
2022/09/02 01:00:55;;;;;;;25.08;15.60;;;18.10;99.90;;;;;;6336363;22;20007;-90
2022/09/02 01:03:23;;;;;;;26.95;16.75;;;18.10;99.90;;;;;;6308274;22;20045;-90
2022/09/02 01:05:52;;;;;;;28.75;17.00;;;18.00;99.90;;;;;;6309157;22;20022;-90
2022/09/02 01:08:23;;;;;;;25.95;16.80;;;17.90;99.90;;;;;;6309146;22;20009;-91
2022/09/02 01:10:54;;;;;;;26.65;15.40;;;17.80;99.90;;;;;;6335857;22;19995;-91
2022/09/02 01:13:26;;;;;;;24.15;15.23;;;17.80;99.90;;;;;;6337005;22;20002;-90
2022/09/02 01:16:01;;;;;;;25.67;14.88;;;17.90;99.90;;;;;;6337010;22;20498;-90
2022/09/02 01:18:28;;;;;;;22.92;14.48;;;17.80;99.90;;;;;;6308537;22;20033;-91
2022/09/02 01:20:59;;;;;;;22.75;14.32;;;17.90;99.90;;;;;;6337477;22;20007;-90
2022/09/02 01:23:27;;;;;;;27.00;14.93;;;18.10;99.90;;;;;;6326402;22;20030;-89
2022/09/02 01:25:53;;;;;;;23.83;13.52;;;17.90;99.90;;;;;;6364350;22;19987;-89
2022/09/02 01:28:22;;;;;;;25.02;14.65;;;18.00;99.90;;;;;;6337919;22;19991;-88
2022/09/02 01:30:49;;;;;;;;;;;18.00;99.90;;;;;;6360124;22;20007;-89
2022/09/02 01:33:16;;;;;;;30.85;16.60;;;;;;;;;;6352701;22;19978;-89
2022/09/02 01:35:42;;;;;;;21.88;15.77;;;;;;;;;;6307924;22;19998;-90
2022/09/02 01:38:08;;;;;;;29.40;16.40;;;;;;;;;;6307764;22;20007;-88
2022/09/02 01:40:35;;;;;;;22.13;16.02;;;17.60;99.90;;;;;;6334667;22;20007;-90
2022/09/02 01:43:10;;;;;;;28.52;15.18;;;17.60;99.90;;;;;;6334799;22;20022;-88
2022/09/02 01:45:38;;;;;;;22.33;15.07;;;17.40;99.90;;;;;;6307286;22;20007;-87
2022/09/02 01:48:05;;;;;;;24.17;15.50;;;17.40;99.90;;;;;;6307957;22;20048;-89
2022/09/02 01:50:32;;;;;;;26.83;16.23;;;17.30;99.90;;;;;;6334528;22;19995;-94
2022/09/02 01:53:02;;;;;;;27.70;15.82;;;17.20;99.90;;;;;;6307783;22;20002;-89
2022/09/02 01:55:29;;;;;;;35.53;15.98;;;17.10;99.90;;;;;;6334673;22;20002;-89
2022/09/02 01:57:55;;;;;;;23.75;15.80;;;17.00;99.90;;;;;;6307270;22;20006;-90
2022/09/02 02:00:21;;;;;;;30.48;15.32;;;17.20;99.90;;;;;;6335338;22;20315;-89
2022/09/02 02:02:47;;;;;;;29.73;15.80;;;17.20;99.90;;;;;;6335165;22;20007;-92
2022/09/02 02:05:14;;;;;;;26.95;15.00;;;;;;;;;;6334896;22;20004;-89
2022/09/02 02:07:41;;;;;;;31.42;16.05;;;17.20;99.90;;;;;;6307076;22;20007;-90
2022/09/02 02:10:09;;;;;;;31.13;14.38;;;17.10;99.90;;;;;;6306782;22;20393;-90
2022/09/02 02:12:36;;;;;;;23.80;14.27;;;17.20;99.90;;;;;;6334390;22;20026;-93
2022/09/02 02:15:06;;;;;;;28.58;14.60;;;17.20;99.90;;;;;;6306963;22;20003;-93
2022/09/02 02:17:32;;;;;;;28.42;15.23;;;;;;;;;;6334823;22;20431;-90
2022/09/02 02:19:58;;;;;;;28.67;16.17;;;17.20;99.90;;;;;;6334868;22;20500;-93
2022/09/02 02:22:24;;;;;;;25.60;15.63;;;17.10;99.90;;;;;;6337554;22;20003;-89
2022/09/02 02:24:50;;;;;;;23.92;15.75;;;17.00;99.90;;;;;;6308650;22;20003;-87
2022/09/02 02:27:16;;;;;;;30.17;15.35;;;16.90;99.90;;;;;;6336484;22;20339;-88
2022/09/02 02:29:41;;;;;;;26.25;14.55;;;17.00;99.90;;;;;;6336283;22;20021;-89
2022/09/02 02:32:07;;;;;;;29.45;15.18;;;17.00;99.90;;;;;;6336486;22;20391;-86
2022/09/02 02:34:34;;;;;;;26.17;15.48;;;17.00;99.90;;;;;;6335893;22;20003;-89
2022/09/02 02:37:00;;;;;;;32.03;16.73;;;17.00;99.90;;;;;;6335182;22;20074;-89
2022/09/02 02:39:26;;;;;;;26.98;15.50;;;17.30;99.90;;;;;;6336843;22;20402;-90
2022/09/02 02:41:52;;;;;;;29.90;15.30;;;17.00;99.90;;;;;;6336825;22;20006;-89
2022/09/02 02:44:22;;;;;;;34.13;16.73;;;17.20;99.90;;;;;;6336081;22;20096;-88
2022/09/02 02:46:48;;;;;;;30.88;17.13;;;17.10;99.90;;;;;;6335927;22;20003;-89
2022/09/02 02:49:14;;;;;;;46.55;17.60;;;17.00;99.90;;;;;;6336089;22;20492;-88
2022/09/02 02:51:41;;;;;;;51.80;20.30;;;17.10;99.90;;;;;;6308714;22;20006;-90
2022/09/02 02:54:06;;;;;;;41.42;20.83;;;17.10;99.90;;;;;;6308662;22;20485;-88
2022/09/02 02:56:33;;;;;;;50.05;22.10;;;17.10;99.90;;;;;;6336052;22;20026;-90
2022/09/02 02:59:02;;;;;;;64.63;21.17;;;17.60;99.90;;;;;;6336492;22;20070;-89
2022/09/02 03:01:29;;;;;;;112.70;23.77;;;17.20;99.90;;;;;;6309441;22;20081;-89
2022/09/02 03:03:55;;;;;;;53.42;24.25;;;17.20;99.90;;;;;;6309494;22;20080;-90
2022/09/02 03:06:21;;;;;;;72.38;23.88;;;;;;;;;;6335865;22;20070;-91
2022/09/02 03:08:47;;;;;;;63.33;23.88;;;;;;;;;;6309158;22;20002;-90
2022/09/02 03:11:14;;;;;;;56.08;24.70;;;17.30;99.90;;;;;;6336519;22;20022;-87
2022/09/02 03:13:40;;;;;;;45.65;22.83;;;17.30;99.90;;;;;;6335814;22;19995;-91
2022/09/02 03:16:07;;;;;;;40.28;22.25;;;;;;;;;;6335773;22;20002;-88
2022/09/02 03:18:33;;;;;;;39.28;21.45;;;17.20;99.90;;;;;;6308185;22;20343;-90
2022/09/02 03:21:00;;;;;;;38.40;22.23;;;17.20;99.90;;;;;;6336496;22;20011;-88
2022/09/02 03:23:26;;;;;;;40.03;22.77;;;17.10;99.90;;;;;;6336264;22;19999;-87
2022/09/02 03:25:52;;;;;;;35.35;21.38;;;;;;;;;;6308405;22;20003;-90
2022/09/02 03:28:18;;;;;;;41.88;21.98;;;17.10;99.90;;;;;;6336197;22;20066;-89
2022/09/02 03:30:45;;;;;;;32.63;19.20;;;17.10;99.90;;;;;;6309330;22;20029;-90
2022/09/02 03:33:11;;;;;;;56.53;22.10;;;17.10;99.90;;;;;;6336243;22;20503;-88
2022/09/02 03:35:40;;;;;;;35.22;19.77;;;17.10;99.90;;;;;;6336046;22;20026;-91
2022/09/02 03:38:06;;;;;;;36.65;19.67;;;17.00;99.90;;;;;;6308991;22;20010;-87
2022/09/02 03:40:33;;;;;;;35.50;17.98;;;;;;;;;;6308128;22;20002;-88
2022/09/02 03:42:58;;;;;;;28.90;18.55;;;17.00;99.90;;;;;;6309495;22;20399;-88
2022/09/02 03:45:24;;;;;;;37.60;17.30;;;16.90;99.90;;;;;;6308410;22;19999;-93
2022/09/02 03:47:52;;;;;;;29.05;17.67;;;;;;;;;;6336572;22;20418;-89
2022/09/02 03:50:30;;;;;;;;;;;17.60;99.90;;;;;;6309441;22;20007;-91
2022/09/02 03:52:57;;;;;;;25.52;18.00;;;17.10;99.90;;;;;;6308973;22;19930;-87
2022/09/02 03:55:25;;;;;;;27.70;16.13;;;16.30;99.90;;;;;;6335953;22;19998;-87
2022/09/02 03:57:50;;;;;;;31.05;17.52;;;16.60;99.90;;;;;;6335573;22;20002;-88
2022/09/02 04:00:19;;;;;;;30.08;16.92;;;16.60;99.90;;;;;;6308570;22;20003;-88
2022/09/02 04:02:45;;;;;;;30.27;16.75;;;16.50;99.90;;;;;;6336408;22;20070;-88
2022/09/02 04:05:11;;;;;;;26.90;17.98;;;16.50;99.90;;;;;;6337033;22;20335;-87
2022/09/02 04:07:38;;;;;;;29.15;17.55;;;16.60;99.90;;;;;;6341379;22;20337;-88
2022/09/02 04:10:06;;;;;;;32.35;17.45;;;16.60;99.90;;;;;;6363521;22;19997;-88
2022/09/02 04:12:32;;;;;;;22.38;15.65;;;16.60;99.90;;;;;;6363570;22;19983;-88
2022/09/02 04:14:58;;;;;;;28.40;16.10;;;16.50;99.90;;;;;;6360835;22;20316;-88
2022/09/02 04:17:24;;;;;;;21.60;15.57;;;16.40;99.90;;;;;;6343229;22;20041;-87
2022/09/02 04:19:49;;;;;;;29.63;16.92;;;16.60;99.90;;;;;;6336510;22;20029;-88
2022/09/02 04:22:15;;;;;;;27.67;17.02;;;16.50;99.90;;;;;;6307589;22;20015;-88
2022/09/02 04:24:41;;;;;;;24.80;15.88;;;16.50;99.90;;;;;;6335443;22;20117;-88
2022/09/02 04:27:06;;;;;;;24.90;15.38;;;16.80;99.90;;;;;;6334952;22;20003;-88
2022/09/02 04:29:33;;;;;;;22.10;14.80;;;16.40;99.90;;;;;;6335849;22;19998;-90
2022/09/02 04:31:59;;;;;;;31.30;17.20;;;16.40;99.90;;;;;;6330367;22;20003;-89
2022/09/02 04:34:24;;;;;;;38.22;18.15;;;16.30;99.90;;;;;;6335211;22;20077;-92
2022/09/02 04:36:51;;;;;;;29.15;18.77;;;16.30;99.90;;;;;;6334572;22;20030;-88
2022/09/02 04:39:18;;;;;;;28.00;16.02;;;16.30;99.90;;;;;;6334369;22;20029;-88
2022/09/02 04:41:44;;;;;;;29.85;17.95;;;16.20;99.90;;;;;;6334718;22;20087;-88
2022/09/02 04:44:10;;;;;;;23.27;15.25;;;16.20;99.90;;;;;;6306895;22;19999;-90
2022/09/02 04:46:35;;;;;;;24.48;16.80;;;16.30;99.90;;;;;;6335041;22;20009;-91
2022/09/02 04:49:03;;;;;;;28.92;15.60;;;16.30;99.90;;;;;;6308543;22;20006;-89
2022/09/02 04:51:29;;;;;;;26.23;16.93;;;16.00;99.90;;;;;;6308547;22;20011;-88
2022/09/02 04:53:55;;;;;;;39.80;20.75;;;16.50;99.90;;;;;;6334522;22;20051;-90
2022/09/02 04:56:25;;;;;;;52.08;20.85;;;16.30;99.90;;;;;;6334115;22;20006;-88
2022/09/02 04:58:51;;;;;;;43.60;20.33;;;16.30;99.90;;;;;;6334087;22;19998;-88
2022/09/02 05:01:21;;;;;;;196.30;24.52;;;16.40;99.90;;;;;;6305970;22;20038;-91
2022/09/02 05:03:47;;;;;;;182.52;25.60;;;15.90;99.90;;;;;;6335021;22;19995;-89
2022/09/02 05:06:46;;;;;;;274.38;26.42;;;16.30;99.90;;;;;;6335727;22;20330;-90
2022/09/02 05:09:15;;;;;;;48.30;20.90;;;14.10;99.90;;;;;;6308747;22;20037;-91
2022/09/02 05:11:56;;;;;;;;;;;;;;;;;;;;;
2022/09/02 05:14:23;;;;;;;273.45;26.95;;;17.80;99.90;;;;;;6342240;22;20041;-93
2022/09/02 05:16:52;;;;;;;144.90;22.08;;;17.70;99.90;;;;;;6309634;22;20011;-90
2022/09/02 05:19:20;;;;;;;129.68;22.98;;;16.50;99.90;;;;;;6309702;22;20003;-92
2022/09/02 05:21:46;;;;;;;183.07;21.83;;;16.50;99.90;;;;;;6309522;22;20036;-92
2022/09/02 05:24:18;;;;;;;131.75;21.10;;;16.50;99.90;;;;;;6309356;22;20427;-92
2022/09/02 05:26:48;;;;;;;101.30;20.83;;;17.40;99.90;;;;;;6309675;22;20040;-91
2022/09/02 05:29:24;;;;;;;;;;;;;;;;;;;;;
2022/09/02 05:31:50;;;;;;;33.92;19.02;;;;;;;;;;6336082;22;20081;-93
2022/09/02 05:34:17;;;;;;;36.85;19.02;;;;;;;;;;6335684;22;20373;-91
2022/09/02 05:36:43;;;;;;;60.80;21.10;;;16.50;99.90;;;;;;6309136;22;20014;-90
2022/09/02 05:39:08;;;;;;;36.97;19.75;;;16.50;99.90;;;;;;6337527;22;19998;-90
2022/09/02 05:41:34;;;;;;;38.72;18.60;;;16.50;99.90;;;;;;6309656;22;20010;-90
2022/09/02 05:44:03;;;;;;;36.13;20.60;;;16.50;99.90;;;;;;6336588;22;19994;-89
2022/09/02 05:46:30;;;;;;;34.55;18.83;;;16.60;99.90;;;;;;6334803;22;19998;-89
2022/09/02 05:49:06;;;;;;;37.65;20.77;;;16.50;99.90;;;;;;6335740;22;20325;-89
2022/09/02 05:51:38;;;;;;;39.60;20.95;;;16.30;99.90;;;;;;6315243;22;20028;-91
2022/09/02 05:54:04;;;;;;;29.88;18.58;;;16.50;99.90;;;;;;6339124;22;19995;-93
2022/09/02 05:56:30;;;;;;;26.63;17.27;;;;;;;;;;6336639;22;20002;-90
2022/09/02 05:58:57;;;;;;;27.65;17.35;;;16.60;99.90;;;;;;6310471;22;20006;-90
2022/09/02 06:01:23;;;;;;;29.60;18.48;;;16.60;99.90;;;;;;6311020;22;20022;-91
2022/09/02 06:03:51;;;;;;;38.63;18.58;;;;;;;;;;6309203;22;20005;-94
2022/09/02 06:06:20;;;;;;;31.27;18.42;;;16.60;99.90;;;;;;6337382;22;20002;-91
2022/09/02 06:08:46;;;;;;;33.17;21.02;;;16.60;99.90;;;;;;6336931;22;20006;-88
2022/09/02 06:11:12;;;;;;;38.40;21.38;;;16.60;99.90;;;;;;6310187;22;20447;-90
2022/09/02 06:13:40;;;;;;;41.10;23.05;;;16.50;99.90;;;;;;6314120;22;20089;-91
2022/09/02 06:16:11;;;;;;;;;;;16.60;99.90;;;;;;6318491;22;20013;-90
2022/09/02 06:18:37;;;;;;;37.42;21.77;;;17.10;99.90;;;;;;6317008;22;20338;-90
2022/09/02 06:21:05;;;;;;;44.25;22.20;;;16.70;99.90;;;;;;6314173;22;20066;-94
2022/09/02 06:23:34;;;;;;;35.53;22.30;;;16.90;99.90;;;;;;6318413;22;20010;-91
2022/09/02 06:26:00;;;;;;;36.85;23.05;;;16.80;99.90;;;;;;6315655;22;20056;-91
2022/09/02 06:28:26;;;;;;;35.53;22.73;;;16.90;99.90;;;;;;6313738;22;20007;-94
2022/09/02 06:30:52;;;;;;;36.13;22.50;;;;;;;;;;6309573;22;19999;-91
2022/09/02 06:33:17;;;;;;;35.53;23.73;;;17.00;99.90;;;;;;6335539;22;20003;-90
2022/09/02 06:35:45;;;;;;;43.05;24.27;;;17.10;99.90;;;;;;6335747;22;20070;-89
2022/09/02 06:38:15;;;;;;;51.20;24.08;;;17.00;99.90;;;;;;6313833;22;20520;-90
2022/09/02 06:40:51;;;;;;;43.13;24.27;;;17.40;99.90;;;;;;6336381;22;20093;-89
2022/09/02 06:43:27;;;;;;;52.42;25.42;;;17.00;99.90;;;;;;6333855;22;20051;-89
2022/09/02 06:45:55;;;;;;;53.28;26.58;;;;;;;;;;6335901;22;20006;-87
2022/09/02 06:48:24;;;;;;;56.00;26.17;;;17.00;99.90;;;;;;6336683;22;20450;-88
2022/09/02 06:50:50;;;;;;;47.40;27.27;;;16.50;99.90;;;;;;6342143;22;20002;-91
2022/09/02 06:53:19;;;;;;;44.55;26.23;;;17.30;99.90;;;;;;6329091;22;20018;-89
2022/09/02 06:55:45;;;;;;;51.95;24.08;;;17.60;99.90;;;;;;6335133;22;19987;-90
2022/09/02 06:58:12;;;;;;;44.13;25.88;;;17.40;99.90;;;;;;6363167;22;19983;-90
2022/09/02 07:00:40;;;;;;;41.63;25.45;;;18.10;99.90;;;;;;6363459;22;19995;-89
2022/09/02 07:06:09;;;;;;;58.90;30.20;;;17.50;99.90;;;;;;6348157;22;20227;-90
2022/09/02 07:08:41;;;;;;;65.68;28.27;;;17.70;99.90;;;;;;6338780;22;20006;-92
2022/09/02 07:11:18;;;;;;;52.38;30.08;;;18.00;99.90;;;;;;6308711;22;20054;-91
2022/09/02 07:13:44;;;;;;;119.75;33.42;;;18.20;99.90;;;;;;6336176;22;20140;-92
2022/09/02 07:16:10;;;;;;;61.92;33.28;;;;;;;;;;6336702;22;20030;-88
2022/09/02 07:18:36;;;;;;;228.23;36.95;;;;;;;;;;6309288;22;20455;-92
2022/09/02 07:21:02;;;;;;;61.40;31.60;;;17.80;99.90;;;;;;6335577;22;20018;-88
2022/09/02 07:23:32;;;;;;;103.53;34.47;;;17.90;99.90;;;;;;6336188;22;20017;-90
2022/09/02 07:25:58;;;;;;;65.25;35.35;;;;;;;;;;6335340;22;20014;-89
2022/09/02 07:28:23;;;;;;;56.42;33.55;;;18.10;99.90;;;;;;6334814;22;20327;-91
2022/09/02 07:30:53;;;;;;;67.20;35.30;;;;;;;;;;6334914;22;20430;-88
2022/09/02 07:33:19;;;;;;;61.45;34.50;;;;;;;;;;6308112;22;20085;-88
2022/09/02 07:35:46;;;;;;;67.20;35.75;;;18.30;99.90;;;;;;6307210;22;20003;-89
2022/09/02 07:38:13;;;;;;;65.80;33.53;;;18.40;99.90;;;;;;6307966;22;20003;-90
2022/09/02 07:40:40;;;;;;;66.70;32.72;;;18.40;99.90;;;;;;6308380;22;20003;-92
2022/09/02 07:43:08;;;;;;;67.00;37.00;;;18.40;99.90;;;;;;6335466;22;20006;-89
2022/09/02 07:45:35;;;;;;;62.15;36.40;;;18.50;99.90;;;;;;6306956;22;20003;-90
2022/09/02 07:48:01;;;;;;;67.95;36.67;;;18.50;99.90;;;;;;6335624;22;20031;-89
2022/09/02 07:50:28;;;;;;;71.47;36.22;;;18.50;99.90;;;;;;6309050;22;20010;-88
2022/09/02 07:52:56;;;;;;;77.05;37.55;;;18.40;99.90;;;;;;6336053;22;19995;-90
2022/09/02 07:55:22;;;;;;;73.75;39.00;;;18.30;99.90;;;;;;6337881;22;20056;-91
2022/09/02 07:57:55;;;;;;;66.03;37.20;;;18.40;99.90;;;;;;6313204;22;20057;-90
2022/09/02 08:01:10;;;;;;;74.55;37.30;;;18.60;99.90;;;;;;6312233;22;20097;-91
2022/09/02 08:04:24;;;;;;;;;;;;;;;;;;;;;
2022/09/02 08:14:42;;;;;;;;;;;;;;;;;;;;;
2022/09/02 08:34:38;;;;;;;;;;;;;;;;;;;;;
2022/09/02 08:41:33;;;;;;;;;;;;;;;;;;;;;
2022/09/02 08:54:54;;;;;;;;;;;;;;;;;;;;;
2022/09/02 09:14:56;;;;;;;92.10;46.33;;;20.90;99.90;;;;;;4891200;29;20033;-94
2022/09/02 09:32:12;;;;;;;;;;;;;;;;;;;;;
2022/09/02 14:09:09;;;;;;;19.10;8.52;;;22.40;99.90;;;;;;6094986;22;4049931;-94
2022/09/02 14:12:12;;;;;;;23.08;10.90;;;23.90;99.90;;;;;;6257201;23;20529;-93
2022/09/02 14:14:41;;;;;;;27.90;11.38;;;22.10;99.90;;;;;;6262276;23;20058;-90
2022/09/02 14:18:13;;;;;;;;;;;;;;;;;;;;;
2022/09/02 14:21:35;;;;;;;19.35;10.70;;;20.60;99.90;;;;;;6173756;22;20106;-91
2022/09/02 14:24:03;;;;;;;27.80;12.20;;;20.50;99.90;;;;;;6241136;23;20008;-91
2022/09/02 14:30:30;;;;;;;;;;;;;;;;;;;;;
2022/09/02 14:34:05;;;;;;;;;;;;;;;;;;;;;
2022/09/02 15:21:51;;;;;;;25.60;12.15;;;21.40;99.90;;;;;;6312704;22;1461632;-95
2022/09/02 16:06:34;;;;;;;10.65;6.32;;;22.40;99.90;;;;;;6379076;22;20025;-94
2022/09/02 16:09:43;;;;;;;11.68;6.05;;;22.30;99.90;;;;;;6380504;22;20037;-93
2022/09/02 16:12:59;;;;;;;10.48;6.25;;;22.40;99.90;;;;;;6350703;22;19998;-92
2022/09/02 16:48:18;;;;;;;;;;;;;;;;;;;;;
2022/09/02 16:54:40;;;;;;;13.07;7.40;;;22.30;99.90;;;;;;6176212;23;20013;-92
2022/09/02 16:57:19;;;;;;;;;;;;;;;;;;;;;
2022/09/02 16:59:45;;;;;;;20.02;7.28;;;22.30;99.90;;;;;;6270786;22;20107;-93
2022/09/02 17:02:10;;;;;;;13.60;7.68;;;22.30;99.90;;;;;;6304367;22;20041;-90
2022/09/02 17:04:36;;;;;;;15.98;7.85;;;22.30;99.90;;;;;;6367999;22;20021;-88
2022/09/02 17:07:02;;;;;;;12.45;7.60;;;22.20;99.90;;;;;;6368341;22;20062;-87
2022/09/02 17:09:27;;;;;;;18.50;7.70;;;22.10;99.90;;;;;;6340047;22;20006;-87
2022/09/02 17:11:53;;;;;;;17.02;7.18;;;22.00;99.90;;;;;;6367212;22;20006;-89
2022/09/02 17:14:20;;;;;;;9.98;7.22;;;;;;;;;;6366606;22;20051;-91
2022/09/02 17:16:48;;;;;;;11.20;7.28;;;22.30;99.90;;;;;;6339159;22;20013;-91
2022/09/02 17:19:19;;;;;;;15.18;7.35;;;23.00;99.90;;;;;;6368574;22;20047;-90
2022/09/02 17:21:47;;;;;;;10.02;6.80;;;23.80;99.90;;;;;;6338539;22;20078;-89
2022/09/02 17:24:14;;;;;;;10.73;6.57;;;24.30;99.90;;;;;;6370086;22;19995;-91
2022/09/02 17:26:41;;;;;;;12.05;6.75;;;;;;;;;;6338341;22;20045;-91
2022/09/02 17:32:35;;;;;;;13.30;5.57;;;24.90;99.90;;;;;;6180448;23;20032;-92
2022/09/02 17:35:14;;;;;;;0.00;0.00;;;25.00;99.90;;;;;;6353398;22;20342;-95
2022/09/02 17:37:40;;;;;;;0.00;0.00;;;24.20;99.90;;;;;;6367842;22;20028;-90
2022/09/02 17:41:53;;;;;;;0.00;0.00;;;24.20;99.90;;;;;;6338297;22;20002;-91
2022/09/02 17:42:55;;;;;;;7.28;4.93;;;24.10;99.90;;;;;;6366543;22;20089;-92
2022/09/02 17:45:21;;;;;;;7.32;4.80;;;;;;;;;;6338696;22;20332;-90
2022/09/02 17:51:41;;;;;;;7.03;4.32;;;22.90;99.90;;;;;;6137513;23;20008;-94
2022/09/02 17:54:07;;;;;;;12.20;4.30;;;22.90;99.90;;;;;;6209488;22;19999;-92
2022/09/02 17:57:00;;;;;;;6.90;4.15;;;22.70;99.90;;;;;;6340372;22;20054;-92
2022/09/02 17:59:28;;;;;;;8.82;4.10;;;22.30;99.90;;;;;;6367988;22;19983;-91
2022/09/02 18:02:18;;;;;;;;;;;22.20;99.90;;;;;;6369070;22;20002;-92
2022/09/02 18:05:31;;;;;;;6.28;4.10;;;22.10;99.90;;;;;;6382149;22;19898;-92
2022/09/02 18:08:01;;;;;;;7.80;4.05;;;;;;;;;;6206471;22;20013;-89
2022/09/02 18:10:52;;;;;;;8.18;4.22;;;22.00;99.90;;;;;;6374403;22;20006;-91
2022/09/02 18:13:27;;;;;;;10.15;4.28;;;22.00;99.90;;;;;;6341448;22;20003;-93
2022/09/02 18:16:24;;;;;;;7.60;4.13;;;22.00;99.90;;;;;;6343010;22;20010;-93
2022/09/02 18:19:12;;;;;;;;;;;;;;;;;;;;;
2022/09/02 18:21:57;;;;;;;6.88;4.07;;;22.20;99.90;;;;;;6372936;22;20045;-92
2022/09/02 18:24:49;;;;;;;11.80;4.13;;;21.80;99.90;;;;;;6340655;22;20452;-88
2022/09/02 18:27:24;;;;;;;5.90;3.85;;;21.60;99.90;;;;;;6364883;22;20042;-89
2022/09/02 18:30:21;;;;;;;12.88;4.07;;;21.50;99.90;;;;;;6366141;22;20082;-92
2022/09/02 18:33:17;;;;;;;7.43;3.95;;;21.50;99.90;;;;;;6337800;22;20003;-91
2022/09/02 18:35:57;;;;;;;7.22;4.10;;;21.40;99.90;;;;;;6338585;22;20002;-89
2022/09/02 18:38:45;;;;;;;9.13;4.20;;;21.30;99.90;;;;;;6340305;22;20002;-90
2022/09/02 18:41:20;;;;;;;7.68;4.07;;;21.30;99.90;;;;;;6291906;22;20070;-90
2022/09/02 18:44:34;;;;;;;6.30;4.15;;;21.30;99.90;;;;;;6365803;22;20070;-90
2022/09/02 18:47:26;;;;;;;5.25;4.00;;;21.20;99.90;;;;;;6303671;22;20102;-90
2022/09/02 18:49:56;;;;;;;9.55;3.90;;;21.10;99.90;;;;;;6365954;22;20328;-92
2022/09/02 18:52:28;;;;;;;6.18;4.20;;;21.00;99.90;;;;;;6338259;22;20275;-92
2022/09/02 18:55:11;;;;;;;9.90;3.75;;;21.00;99.90;;;;;;6336986;22;19998;-91
2022/09/02 18:57:49;;;;;;;6.60;3.95;;;20.90;99.90;;;;;;6336942;22;20002;-92
2022/09/02 19:00:21;;;;;;;10.73;3.97;;;20.80;99.90;;;;;;6365301;22;20359;-89
2022/09/02 19:03:02;;;;;;;9.05;3.85;;;20.80;99.90;;;;;;6365698;22;19998;-90
2022/09/02 19:05:31;;;;;;;11.15;4.80;;;20.70;99.90;;;;;;6338953;22;20008;-90
2022/09/02 19:10:48;;;;;;;15.35;9.70;;;20.70;99.90;;;;;;6365216;22;20006;-93
2022/09/02 19:13:23;;;;;;;15.38;7.00;;;;;;;;;;6337515;22;20326;-92
2022/09/02 19:15:48;;;;;;;10.35;6.00;;;20.60;99.90;;;;;;6365691;22;19998;-90
2022/09/02 19:18:16;;;;;;;9.07;4.88;;;20.60;99.90;;;;;;6339609;22;20003;-90
2022/09/02 19:20:52;;;;;;;10.68;5.45;;;20.50;99.90;;;;;;6339445;22;20003;-92
2022/09/02 19:23:22;;;;;;;7.40;4.80;;;20.70;99.90;;;;;;6338893;22;20026;-93
2022/09/02 19:25:50;;;;;;;8.43;4.43;;;19.70;99.90;;;;;;6366076;22;19995;-92
2022/09/02 19:28:19;;;;;;;;;;;20.40;99.90;;;;;;6339415;22;20013;-91
2022/09/02 19:30:56;;;;;;;7.80;4.68;;;20.40;99.90;;;;;;6338649;22;19906;-90
2022/09/02 19:33:26;;;;;;;6.13;4.10;;;20.20;99.90;;;;;;6368441;22;19998;-93
2022/09/02 19:35:52;;;;;;;7.03;3.70;;;;;;;;;;6341207;22;20002;-94
2022/09/02 19:38:19;;;;;;;9.05;4.30;;;20.20;99.90;;;;;;6368597;22;20081;-92
2022/09/02 19:40:51;;;;;;;7.50;3.95;;;20.10;99.90;;;;;;6368253;22;20326;-91
2022/09/02 19:43:17;;;;;;;7.00;4.05;;;20.10;99.90;;;;;;6342495;22;20006;-91
2022/09/02 19:45:43;;;;;;;8.25;3.92;;;20.10;99.90;;;;;;6366868;22;19995;-91
2022/09/02 19:48:09;;;;;;;6.80;3.75;;;20.00;99.90;;;;;;6338584;22;20011;-93
2022/09/02 19:50:44;;;;;;;8.63;3.95;;;20.10;99.90;;;;;;6339119;22;20376;-93
2022/09/02 19:53:18;;;;;;;8.40;3.72;;;19.90;99.90;;;;;;6340062;22;20002;-90
2022/09/02 19:55:45;;;;;;;6.10;4.10;;;;;;;;;;6341341;22;20010;-91
2022/09/02 19:58:10;;;;;;;6.82;4.20;;;19.90;99.90;;;;;;6342031;22;20070;-92
2022/09/02 20:00:41;;;;;;;11.40;4.80;;;20.10;99.90;;;;;;6343878;22;20060;-91
2022/09/02 20:03:07;;;;;;;5.70;3.83;;;;;;;;;;6369031;22;20071;-93
2022/09/02 20:05:34;;;;;;;10.70;4.60;;;19.80;99.90;;;;;;6367894;22;20006;-90
2022/09/02 20:08:00;;;;;;;6.40;4.65;;;19.90;99.90;;;;;;6340766;22;20350;-90
2022/09/02 20:10:26;;;;;;;8.75;4.53;;;19.80;99.90;;;;;;6338650;22;20442;-93
2022/09/02 20:12:52;;;;;;;6.07;4.18;;;;;;;;;;6366976;22;20365;-91
2022/09/02 20:15:17;;;;;;;10.10;4.75;;;19.70;99.90;;;;;;6338627;22;20001;-90
2022/09/02 20:17:43;;;;;;;9.93;4.60;;;19.70;99.90;;;;;;6366089;22;20073;-89
2022/09/02 20:20:19;;;;;;;9.38;5.20;;;19.70;99.90;;;;;;6366868;22;20030;-93
2022/09/02 20:22:53;;;;;;;7.85;5.07;;;19.70;99.90;;;;;;6338128;22;20060;-90
2022/09/02 20:25:24;;;;;;;7.78;4.80;;;19.60;99.90;;;;;;6367011;22;20005;-92
2022/09/02 20:28:08;;;;;;;7.20;5.07;;;19.60;99.90;;;;;;6367730;22;20038;-89
2022/09/02 20:30:41;;;;;;;7.90;4.93;;;19.60;99.90;;;;;;6367771;22;20391;-90
2022/09/02 20:33:18;;;;;;;8.85;5.30;;;19.60;99.90;;;;;;6338164;22;20009;-89
2022/09/02 20:36:02;;;;;;;9.50;5.00;;;19.50;99.90;;;;;;6366238;22;19994;-90
2022/09/02 20:38:59;;;;;;;11.40;5.30;;;19.50;99.90;;;;;;6348341;22;19990;-90
2022/09/02 20:41:34;;;;;;;9.38;5.60;;;19.50;99.90;;;;;;6367335;22;20002;-91
2022/09/02 20:44:26;;;;;;;7.80;4.85;;;19.40;99.90;;;;;;6367953;22;20012;-89
2022/09/02 20:47:08;;;;;;;10.90;5.05;;;19.50;99.90;;;;;;6362559;22;20014;-90
2022/09/02 20:49:34;;;;;;;6.63;4.60;;;;;;;;;;6378197;22;20430;-90
2022/09/02 20:52:06;;;;;;;13.40;4.80;;;19.50;99.90;;;;;;6340537;22;20047;-92
2022/09/02 20:54:43;;;;;;;9.73;4.88;;;19.50;99.90;;;;;;6340859;22;19998;-93
2022/09/02 20:57:46;;;;;;;8.50;4.50;;;19.80;99.90;;;;;;6339256;22;20025;-94
2022/09/02 21:00:15;;;;;;;7.63;4.47;;;19.50;99.90;;;;;;6338084;22;19998;-90
2022/09/02 21:02:50;;;;;;;8.85;4.28;;;19.50;99.90;;;;;;6338932;22;20012;-94
2022/09/02 21:05:26;;;;;;;9.27;4.43;;;19.40;99.90;;;;;;6366974;22;20002;-90
2022/09/02 21:08:18;;;;;;;8.38;4.45;;;19.50;99.90;;;;;;6366622;22;20016;-90
2022/09/02 21:10:50;;;;;;;16.33;5.47;;;19.50;99.90;;;;;;6338079;22;20084;-89
2022/09/02 21:13:37;;;;;;;10.35;4.68;;;19.50;99.90;;;;;;6338254;22;20003;-90
2022/09/02 21:16:25;;;;;;;8.15;4.38;;;19.50;99.90;;;;;;6339703;22;20048;-89
2022/09/02 21:19:12;;;;;;;6.35;4.40;;;19.60;99.90;;;;;;6338841;22;19995;-91
2022/09/02 21:22:03;;;;;;;8.82;4.47;;;19.60;99.90;;;;;;6338558;22;20011;-89
2022/09/02 21:24:50;;;;;;;7.60;4.15;;;19.60;99.90;;;;;;6338652;22;20008;-89
2022/09/02 21:27:49;;;;;;;13.43;4.10;;;19.60;99.90;;;;;;6366361;22;20007;-89
2022/09/02 21:30:29;;;;;;;9.55;3.88;;;19.70;99.90;;;;;;6337857;22;20081;-90
2022/09/02 21:33:03;;;;;;;8.48;4.20;;;20.80;99.90;;;;;;6336762;22;20467;-90
2022/09/02 21:35:46;;;;;;;7.65;4.50;;;19.60;99.90;;;;;;6337501;22;20003;-92